sensor_id;sensor_type;location;lat;lon;timestamp;temperature;humidity
74364;DHT22;62797;49.740;10.154;2023-07-28T00:01:35;17.20;89.20
74364;DHT22;62797;49.740;10.154;2023-07-28T00:04:00;17.20;89.20
74364;DHT22;62797;49.740;10.154;2023-07-28T00:06:28;17.20;89.30
74364;DHT22;62797;49.740;10.154;2023-07-28T00:08:56;17.20;89.40
74364;DHT22;62797;49.740;10.154;2023-07-28T00:11:21;17.20;89.70
74364;DHT22;62797;49.740;10.154;2023-07-28T00:13:47;17.20;89.60
74364;DHT22;62797;49.740;10.154;2023-07-28T00:16:13;17.10;89.80
74364;DHT22;62797;49.740;10.154;2023-07-28T00:18:39;17.20;90.00
74364;DHT22;62797;49.740;10.154;2023-07-28T00:21:05;17.20;89.50
74364;DHT22;62797;49.740;10.154;2023-07-28T00:23:31;17.20;89.60
74364;DHT22;62797;49.740;10.154;2023-07-28T00:25:57;17.20;89.20
74364;DHT22;62797;49.740;10.154;2023-07-28T00:28:23;17.20;89.70
74364;DHT22;62797;49.740;10.154;2023-07-28T00:30:49;17.10;89.40
74364;DHT22;62797;49.740;10.154;2023-07-28T00:33:15;17.10;89.70
74364;DHT22;62797;49.740;10.154;2023-07-28T00:35:41;17.20;89.80
74364;DHT22;62797;49.740;10.154;2023-07-28T00:38:07;17.10;90.00
74364;DHT22;62797;49.740;10.154;2023-07-28T00:40:32;17.10;90.20
74364;DHT22;62797;49.740;10.154;2023-07-28T00:42:58;17.10;90.10
74364;DHT22;62797;49.740;10.154;2023-07-28T00:45:24;17.10;89.80
74364;DHT22;62797;49.740;10.154;2023-07-28T00:47:51;17.10;90.20
74364;DHT22;62797;49.740;10.154;2023-07-28T00:50:17;17.20;90.10
74364;DHT22;62797;49.740;10.154;2023-07-28T00:52:46;17.10;90.30
74364;DHT22;62797;49.740;10.154;2023-07-28T00:55:12;17.20;90.30
74364;DHT22;62797;49.740;10.154;2023-07-28T00:57:38;17.10;90.40
74364;DHT22;62797;49.740;10.154;2023-07-28T01:00:05;17.10;90.30
74364;DHT22;62797;49.740;10.154;2023-07-28T01:02:31;17.10;90.30
74364;DHT22;62797;49.740;10.154;2023-07-28T01:04:57;17.10;90.70
74364;DHT22;62797;49.740;10.154;2023-07-28T01:07:35;17.10;90.50
74364;DHT22;62797;49.740;10.154;2023-07-28T01:10:06;17.10;90.70
74364;DHT22;62797;49.740;10.154;2023-07-28T01:12:33;17.10;90.40
74364;DHT22;62797;49.740;10.154;2023-07-28T01:14:59;17.10;90.60
74364;DHT22;62797;49.740;10.154;2023-07-28T01:17:25;17.10;90.60
74364;DHT22;62797;49.740;10.154;2023-07-28T01:19:52;17.10;90.40
74364;DHT22;62797;49.740;10.154;2023-07-28T01:25:05;17.10;90.70
74364;DHT22;62797;49.740;10.154;2023-07-28T01:27:34;17.10;90.70
74364;DHT22;62797;49.740;10.154;2023-07-28T01:30:00;17.10;90.70
74364;DHT22;62797;49.740;10.154;2023-07-28T01:32:26;17.10;90.80
74364;DHT22;62797;49.740;10.154;2023-07-28T01:34:51;17.20;90.60
74364;DHT22;62797;49.740;10.154;2023-07-28T01:37:17;17.10;90.50
74364;DHT22;62797;49.740;10.154;2023-07-28T01:39:43;17.20;90.60
74364;DHT22;62797;49.740;10.154;2023-07-28T01:42:08;17.10;90.60
74364;DHT22;62797;49.740;10.154;2023-07-28T01:44:34;17.10;90.70
74364;DHT22;62797;49.740;10.154;2023-07-28T01:47:00;17.20;90.50
74364;DHT22;62797;49.740;10.154;2023-07-28T01:49:25;17.10;90.50
74364;DHT22;62797;49.740;10.154;2023-07-28T01:51:51;17.10;91.00
74364;DHT22;62797;49.740;10.154;2023-07-28T01:54:17;17.10;90.90
74364;DHT22;62797;49.740;10.154;2023-07-28T01:56:42;17.10;90.90
74364;DHT22;62797;49.740;10.154;2023-07-28T01:59:08;17.10;91.00
74364;DHT22;62797;49.740;10.154;2023-07-28T02:01:35;17.10;91.10
74364;DHT22;62797;49.740;10.154;2023-07-28T02:04:00;17.00;90.90
74364;DHT22;62797;49.740;10.154;2023-07-28T02:06:26;17.10;91.00
74364;DHT22;62797;49.740;10.154;2023-07-28T02:08:53;17.00;91.00
74364;DHT22;62797;49.740;10.154;2023-07-28T02:11:19;17.00;91.30
74364;DHT22;62797;49.740;10.154;2023-07-28T02:13:47;17.10;91.30
74364;DHT22;62797;49.740;10.154;2023-07-28T02:16:16;17.10;91.40
74364;DHT22;62797;49.740;10.154;2023-07-28T02:18:42;17.10;91.50
74364;DHT22;62797;49.740;10.154;2023-07-28T02:21:10;17.10;91.60
74364;DHT22;62797;49.740;10.154;2023-07-28T02:23:36;17.10;91.70
74364;DHT22;62797;49.740;10.154;2023-07-28T02:26:02;17.10;91.70
74364;DHT22;62797;49.740;10.154;2023-07-28T02:28:27;17.10;91.80
74364;DHT22;62797;49.740;10.154;2023-07-28T02:30:53;17.10;91.60
74364;DHT22;62797;49.740;10.154;2023-07-28T02:33:19;17.10;91.60
74364;DHT22;62797;49.740;10.154;2023-07-28T02:35:45;17.10;92.50
74364;DHT22;62797;49.740;10.154;2023-07-28T02:38:10;17.10;91.20
74364;DHT22;62797;49.740;10.154;2023-07-28T02:40:36;17.20;90.90
74364;DHT22;62797;49.740;10.154;2023-07-28T02:43:02;17.10;91.20
74364;DHT22;62797;49.740;10.154;2023-07-28T02:45:28;17.10;91.70
74364;DHT22;62797;49.740;10.154;2023-07-28T02:47:53;17.10;91.10
74364;DHT22;62797;49.740;10.154;2023-07-28T02:50:21;17.10;91.20
74364;DHT22;62797;49.740;10.154;2023-07-28T02:52:50;17.10;91.60
74364;DHT22;62797;49.740;10.154;2023-07-28T02:55:16;17.10;91.70
74364;DHT22;62797;49.740;10.154;2023-07-28T02:57:44;17.10;91.90
74364;DHT22;62797;49.740;10.154;2023-07-28T03:00:11;17.20;91.90
74364;DHT22;62797;49.740;10.154;2023-07-28T03:02:37;17.20;91.80
74364;DHT22;62797;49.740;10.154;2023-07-28T03:05:03;17.20;91.50
74364;DHT22;62797;49.740;10.154;2023-07-28T03:07:55;17.10;91.80
74364;DHT22;62797;49.740;10.154;2023-07-28T03:10:21;17.10;92.00
74364;DHT22;62797;49.740;10.154;2023-07-28T03:12:49;17.10;91.80
74364;DHT22;62797;49.740;10.154;2023-07-28T03:15:20;17.20;91.40
74364;DHT22;62797;49.740;10.154;2023-07-28T03:17:52;17.20;91.40
74364;DHT22;62797;49.740;10.154;2023-07-28T03:20:20;17.20;91.80
74364;DHT22;62797;49.740;10.154;2023-07-28T03:22:45;17.20;91.90
74364;DHT22;62797;49.740;10.154;2023-07-28T03:25:12;17.10;91.80
74364;DHT22;62797;49.740;10.154;2023-07-28T03:27:38;17.10;92.00
74364;DHT22;62797;49.740;10.154;2023-07-28T03:30:04;17.20;92.10
74364;DHT22;62797;49.740;10.154;2023-07-28T03:32:32;17.10;92.20
74364;DHT22;62797;49.740;10.154;2023-07-28T03:34:58;17.10;92.10
74364;DHT22;62797;49.740;10.154;2023-07-28T03:37:24;17.10;92.10
74364;DHT22;62797;49.740;10.154;2023-07-28T03:39:50;17.10;92.30
74364;DHT22;62797;49.740;10.154;2023-07-28T03:42:16;17.10;92.10
74364;DHT22;62797;49.740;10.154;2023-07-28T03:44:42;17.20;92.00
74364;DHT22;62797;49.740;10.154;2023-07-28T03:47:08;17.10;92.00
74364;DHT22;62797;49.740;10.154;2023-07-28T03:49:34;17.10;91.60
74364;DHT22;62797;49.740;10.154;2023-07-28T03:52:00;17.10;91.60
74364;DHT22;62797;49.740;10.154;2023-07-28T03:54:25;17.20;91.20
74364;DHT22;62797;49.740;10.154;2023-07-28T03:56:51;17.10;91.50
74364;DHT22;62797;49.740;10.154;2023-07-28T03:59:19;17.10;91.80
74364;DHT22;62797;49.740;10.154;2023-07-28T04:01:45;17.10;92.00
74364;DHT22;62797;49.740;10.154;2023-07-28T04:04:11;17.10;91.90
74364;DHT22;62797;49.740;10.154;2023-07-28T04:06:44;17.10;92.20
74364;DHT22;62797;49.740;10.154;2023-07-28T04:09:11;17.20;92.30
74364;DHT22;62797;49.740;10.154;2023-07-28T04:11:37;17.20;92.20
74364;DHT22;62797;49.740;10.154;2023-07-28T04:14:03;17.20;92.30
74364;DHT22;62797;49.740;10.154;2023-07-28T04:16:29;17.10;92.50
74364;DHT22;62797;49.740;10.154;2023-07-28T04:18:55;17.20;92.10
74364;DHT22;62797;49.740;10.154;2023-07-28T04:21:21;17.20;92.30
74364;DHT22;62797;49.740;10.154;2023-07-28T04:23:47;17.20;92.50
74364;DHT22;62797;49.740;10.154;2023-07-28T04:26:12;17.30;92.50
74364;DHT22;62797;49.740;10.154;2023-07-28T04:28:39;17.30;92.60
74364;DHT22;62797;49.740;10.154;2023-07-28T04:31:05;17.30;92.60
74364;DHT22;62797;49.740;10.154;2023-07-28T04:33:51;17.20;92.20
74364;DHT22;62797;49.740;10.154;2023-07-28T04:36:17;17.30;91.80
74364;DHT22;62797;49.740;10.154;2023-07-28T04:38:43;17.20;91.50
74364;DHT22;62797;49.740;10.154;2023-07-28T04:41:09;17.30;91.40
74364;DHT22;62797;49.740;10.154;2023-07-28T04:43:55;17.30;91.40
74364;DHT22;62797;49.740;10.154;2023-07-28T04:46:26;17.30;91.10
74364;DHT22;62797;49.740;10.154;2023-07-28T04:48:56;17.30;91.00
74364;DHT22;62797;49.740;10.154;2023-07-28T04:51:45;17.30;91.40
74364;DHT22;62797;49.740;10.154;2023-07-28T04:54:19;17.20;91.60
74364;DHT22;62797;49.740;10.154;2023-07-28T04:56:45;17.20;91.50
74364;DHT22;62797;49.740;10.154;2023-07-28T04:59:11;17.30;91.20
74364;DHT22;62797;49.740;10.154;2023-07-28T05:01:37;17.30;91.30
74364;DHT22;62797;49.740;10.154;2023-07-28T05:04:03;17.30;91.60
74364;DHT22;62797;49.740;10.154;2023-07-28T05:06:32;17.30;91.60
74364;DHT22;62797;49.740;10.154;2023-07-28T05:08:58;17.30;92.80
74364;DHT22;62797;49.740;10.154;2023-07-28T05:11:32;17.30;92.10
74364;DHT22;62797;49.740;10.154;2023-07-28T05:13:57;17.30;92.30
74364;DHT22;62797;49.740;10.154;2023-07-28T05:16:23;17.40;92.50
74364;DHT22;62797;49.740;10.154;2023-07-28T05:19:08;17.40;92.30
74364;DHT22;62797;49.740;10.154;2023-07-28T05:21:52;17.40;92.30
74364;DHT22;62797;49.740;10.154;2023-07-28T05:24:22;17.50;92.60
74364;DHT22;62797;49.740;10.154;2023-07-28T05:26:48;17.60;92.10
74364;DHT22;62797;49.740;10.154;2023-07-28T05:29:14;17.60;91.80
74364;DHT22;62797;49.740;10.154;2023-07-28T05:31:41;17.60;92.00
74364;DHT22;62797;49.740;10.154;2023-07-28T05:34:16;17.60;92.10
74364;DHT22;62797;49.740;10.154;2023-07-28T05:36:43;17.70;91.60
74364;DHT22;62797;49.740;10.154;2023-07-28T05:39:09;17.60;91.60
74364;DHT22;62797;49.740;10.154;2023-07-28T05:41:41;17.70;91.30
74364;DHT22;62797;49.740;10.154;2023-07-28T05:44:09;17.70;91.50
74364;DHT22;62797;49.740;10.154;2023-07-28T05:46:37;17.70;90.50
74364;DHT22;62797;49.740;10.154;2023-07-28T05:49:03;17.70;91.10
74364;DHT22;62797;49.740;10.154;2023-07-28T05:51:29;17.70;91.50
74364;DHT22;62797;49.740;10.154;2023-07-28T05:53:54;17.70;91.80
74364;DHT22;62797;49.740;10.154;2023-07-28T05:56:20;17.80;91.80
74364;DHT22;62797;49.740;10.154;2023-07-28T05:58:47;17.80;91.70
74364;DHT22;62797;49.740;10.154;2023-07-28T06:01:13;17.80;91.90
74364;DHT22;62797;49.740;10.154;2023-07-28T06:04:11;17.90;91.50
74364;DHT22;62797;49.740;10.154;2023-07-28T06:06:45;17.90;90.70
74364;DHT22;62797;49.740;10.154;2023-07-28T06:09:15;17.90;90.90
74364;DHT22;62797;49.740;10.154;2023-07-28T06:11:42;17.90;91.00
74364;DHT22;62797;49.740;10.154;2023-07-28T06:14:08;17.90;91.50
74364;DHT22;62797;49.740;10.154;2023-07-28T06:16:35;17.90;90.70
74364;DHT22;62797;49.740;10.154;2023-07-28T06:19:01;17.90;90.20
74364;DHT22;62797;49.740;10.154;2023-07-28T06:21:27;17.90;91.20
74364;DHT22;62797;49.740;10.154;2023-07-28T06:23:53;18.00;90.80
74364;DHT22;62797;49.740;10.154;2023-07-28T06:26:19;18.00;90.90
74364;DHT22;62797;49.740;10.154;2023-07-28T06:28:45;18.00;91.00
74364;DHT22;62797;49.740;10.154;2023-07-28T06:31:10;18.10;90.70
74364;DHT22;62797;49.740;10.154;2023-07-28T06:33:37;18.10;90.70
74364;DHT22;62797;49.740;10.154;2023-07-28T06:36:03;18.20;91.00
74364;DHT22;62797;49.740;10.154;2023-07-28T06:38:30;18.20;90.60
74364;DHT22;62797;49.740;10.154;2023-07-28T06:40:55;18.30;91.10
74364;DHT22;62797;49.740;10.154;2023-07-28T06:43:21;18.30;90.90
74364;DHT22;62797;49.740;10.154;2023-07-28T06:45:50;18.40;91.00
74364;DHT22;62797;49.740;10.154;2023-07-28T06:48:16;18.30;90.90
74364;DHT22;62797;49.740;10.154;2023-07-28T06:50:42;18.40;90.80
74364;DHT22;62797;49.740;10.154;2023-07-28T06:53:08;18.40;91.00
74364;DHT22;62797;49.740;10.154;2023-07-28T06:55:34;18.40;91.40
74364;DHT22;62797;49.740;10.154;2023-07-28T06:58:03;18.50;90.80
74364;DHT22;62797;49.740;10.154;2023-07-28T07:00:29;18.50;91.40
74364;DHT22;62797;49.740;10.154;2023-07-28T07:02:54;18.50;90.80
74364;DHT22;62797;49.740;10.154;2023-07-28T07:05:20;18.50;91.10
74364;DHT22;62797;49.740;10.154;2023-07-28T07:07:46;18.50;90.10
74364;DHT22;62797;49.740;10.154;2023-07-28T07:10:12;18.50;90.20
74364;DHT22;62797;49.740;10.154;2023-07-28T07:12:38;18.50;89.40
74364;DHT22;62797;49.740;10.154;2023-07-28T07:15:04;18.50;89.50
74364;DHT22;62797;49.740;10.154;2023-07-28T07:17:31;18.50;90.20
74364;DHT22;62797;49.740;10.154;2023-07-28T07:19:57;18.50;89.50
74364;DHT22;62797;49.740;10.154;2023-07-28T07:22:25;18.40;89.20
74364;DHT22;62797;49.740;10.154;2023-07-28T07:24:52;18.40;90.40
74364;DHT22;62797;49.740;10.154;2023-07-28T07:27:18;18.40;90.70
74364;DHT22;62797;49.740;10.154;2023-07-28T07:29:43;18.50;91.00
74364;DHT22;62797;49.740;10.154;2023-07-28T07:32:09;18.50;90.80
74364;DHT22;62797;49.740;10.154;2023-07-28T07:34:36;18.50;90.20
74364;DHT22;62797;49.740;10.154;2023-07-28T07:37:03;18.50;90.30
74364;DHT22;62797;49.740;10.154;2023-07-28T07:39:32;18.50;90.20
74364;DHT22;62797;49.740;10.154;2023-07-28T07:41:59;18.50;90.30
74364;DHT22;62797;49.740;10.154;2023-07-28T07:44:25;18.50;89.80
74364;DHT22;62797;49.740;10.154;2023-07-28T07:46:51;18.50;89.70
74364;DHT22;62797;49.740;10.154;2023-07-28T07:49:17;18.50;90.00
74364;DHT22;62797;49.740;10.154;2023-07-28T07:51:43;18.50;89.00
74364;DHT22;62797;49.740;10.154;2023-07-28T07:54:08;18.50;89.10
74364;DHT22;62797;49.740;10.154;2023-07-28T07:56:34;18.50;89.40
74364;DHT22;62797;49.740;10.154;2023-07-28T07:59:00;18.50;90.10
74364;DHT22;62797;49.740;10.154;2023-07-28T08:01:26;18.50;89.50
74364;DHT22;62797;49.740;10.154;2023-07-28T08:03:52;18.50;88.80
74364;DHT22;62797;49.740;10.154;2023-07-28T08:06:17;18.40;89.80
74364;DHT22;62797;49.740;10.154;2023-07-28T08:08:43;18.50;87.90
74364;DHT22;62797;49.740;10.154;2023-07-28T08:11:09;18.60;87.70
74364;DHT22;62797;49.740;10.154;2023-07-28T08:13:34;18.50;89.20
74364;DHT22;62797;49.740;10.154;2023-07-28T08:16:00;18.50;89.30
74364;DHT22;62797;49.740;10.154;2023-07-28T08:18:25;18.50;89.30
74364;DHT22;62797;49.740;10.154;2023-07-28T08:20:51;18.60;90.40
74364;DHT22;62797;49.740;10.154;2023-07-28T08:23:17;18.70;90.90
74364;DHT22;62797;49.740;10.154;2023-07-28T08:25:42;18.70;91.10
74364;DHT22;62797;49.740;10.154;2023-07-28T08:28:10;18.70;90.70
74364;DHT22;62797;49.740;10.154;2023-07-28T08:30:36;18.80;91.10
74364;DHT22;62797;49.740;10.154;2023-07-28T08:33:01;18.90;91.40
74364;DHT22;62797;49.740;10.154;2023-07-28T08:35:28;19.00;90.60
74364;DHT22;62797;49.740;10.154;2023-07-28T08:37:54;19.20;89.60
74364;DHT22;62797;49.740;10.154;2023-07-28T08:40:20;19.30;87.00
74364;DHT22;62797;49.740;10.154;2023-07-28T08:42:45;19.40;87.10
74364;DHT22;62797;49.740;10.154;2023-07-28T08:45:13;19.60;88.80
74364;DHT22;62797;49.740;10.154;2023-07-28T08:47:39;19.80;85.70
74364;DHT22;62797;49.740;10.154;2023-07-28T08:50:05;19.90;83.60
74364;DHT22;62797;49.740;10.154;2023-07-28T08:52:34;20.00;85.20
74364;DHT22;62797;49.740;10.154;2023-07-28T08:55:00;19.90;81.90
74364;DHT22;62797;49.740;10.154;2023-07-28T08:57:25;19.80;83.40
74364;DHT22;62797;49.740;10.154;2023-07-28T08:59:51;19.70;84.20
74364;DHT22;62797;49.740;10.154;2023-07-28T09:02:20;19.60;85.40
74364;DHT22;62797;49.740;10.154;2023-07-28T09:04:47;19.70;86.10
74364;DHT22;62797;49.740;10.154;2023-07-28T09:07:14;19.60;86.80
74364;DHT22;62797;49.740;10.154;2023-07-28T09:09:40;19.50;87.30
74364;DHT22;62797;49.740;10.154;2023-07-28T09:12:09;19.40;84.20
74364;DHT22;62797;49.740;10.154;2023-07-28T09:14:36;19.30;85.30
74364;DHT22;62797;49.740;10.154;2023-07-28T09:17:09;19.30;86.50
74364;DHT22;62797;49.740;10.154;2023-07-28T09:19:52;19.30;86.80
74364;DHT22;62797;49.740;10.154;2023-07-28T09:22:18;19.30;84.70
74364;DHT22;62797;49.740;10.154;2023-07-28T09:24:45;19.30;85.10
74364;DHT22;62797;49.740;10.154;2023-07-28T09:27:23;19.20;86.30
74364;DHT22;62797;49.740;10.154;2023-07-28T09:29:54;19.30;85.30
74364;DHT22;62797;49.740;10.154;2023-07-28T09:32:31;19.30;87.10
74364;DHT22;62797;49.740;10.154;2023-07-28T09:35:09;19.50;83.00
74364;DHT22;62797;49.740;10.154;2023-07-28T09:37:45;19.50;84.00
74364;DHT22;62797;49.740;10.154;2023-07-28T09:40:12;19.60;84.80
74364;DHT22;62797;49.740;10.154;2023-07-28T09:42:42;19.60;83.30
74364;DHT22;62797;49.740;10.154;2023-07-28T09:45:10;19.60;81.60
74364;DHT22;62797;49.740;10.154;2023-07-28T09:47:37;19.90;80.00
74364;DHT22;62797;49.740;10.154;2023-07-28T09:50:08;20.30;77.90
74364;DHT22;62797;49.740;10.154;2023-07-28T09:52:38;20.60;77.50
74364;DHT22;62797;49.740;10.154;2023-07-28T09:55:07;20.60;76.10
74364;DHT22;62797;49.740;10.154;2023-07-28T09:57:50;20.80;72.20
74364;DHT22;62797;49.740;10.154;2023-07-28T10:00:19;20.80;70.30
74364;DHT22;62797;49.740;10.154;2023-07-28T10:02:48;20.70;73.40
74364;DHT22;62797;49.740;10.154;2023-07-28T10:05:14;20.70;72.70
74364;DHT22;62797;49.740;10.154;2023-07-28T10:07:45;20.60;71.50
74364;DHT22;62797;49.740;10.154;2023-07-28T10:10:13;20.70;75.50
74364;DHT22;62797;49.740;10.154;2023-07-28T10:12:41;21.00;73.10
74364;DHT22;62797;49.740;10.154;2023-07-28T10:15:09;21.00;74.80
74364;DHT22;62797;49.740;10.154;2023-07-28T10:17:37;21.10;75.90
74364;DHT22;62797;49.740;10.154;2023-07-28T10:20:10;21.20;67.40
74364;DHT22;62797;49.740;10.154;2023-07-28T10:23:02;21.40;66.80
74364;DHT22;62797;49.740;10.154;2023-07-28T10:25:28;21.50;67.70
74364;DHT22;62797;49.740;10.154;2023-07-28T10:27:57;21.50;66.70
74364;DHT22;62797;49.740;10.154;2023-07-28T10:30:22;21.50;71.50
74364;DHT22;62797;49.740;10.154;2023-07-28T10:32:49;21.50;71.00
74364;DHT22;62797;49.740;10.154;2023-07-28T10:37:44;21.60;71.60
74364;DHT22;62797;49.740;10.154;2023-07-28T10:42:52;21.40;69.40
74364;DHT22;62797;49.740;10.154;2023-07-28T10:45:19;21.30;72.70
74364;DHT22;62797;49.740;10.154;2023-07-28T10:47:45;21.30;71.60
74364;DHT22;62797;49.740;10.154;2023-07-28T10:50:11;21.30;69.40
74364;DHT22;62797;49.740;10.154;2023-07-28T10:52:44;21.10;71.60
74364;DHT22;62797;49.740;10.154;2023-07-28T10:55:17;21.10;73.50
74364;DHT22;62797;49.740;10.154;2023-07-28T10:57:44;21.20;70.40
74364;DHT22;62797;49.740;10.154;2023-07-28T11:00:12;21.10;73.30
74364;DHT22;62797;49.740;10.154;2023-07-28T11:02:49;21.20;73.40
74364;DHT22;62797;49.740;10.154;2023-07-28T11:05:22;21.50;73.80
74364;DHT22;62797;49.740;10.154;2023-07-28T11:07:54;21.90;73.70
74364;DHT22;62797;49.740;10.154;2023-07-28T11:10:20;22.10;72.10
74364;DHT22;62797;49.740;10.154;2023-07-28T11:12:49;22.10;69.40
74364;DHT22;62797;49.740;10.154;2023-07-28T11:15:17;22.10;66.30
74364;DHT22;62797;49.740;10.154;2023-07-28T11:17:52;22.30;63.10
74364;DHT22;62797;49.740;10.154;2023-07-28T11:20:20;22.20;62.80
74364;DHT22;62797;49.740;10.154;2023-07-28T11:23:03;22.00;68.90
74364;DHT22;62797;49.740;10.154;2023-07-28T11:25:31;22.00;64.50
74364;DHT22;62797;49.740;10.154;2023-07-28T11:27:57;22.00;68.60
74364;DHT22;62797;49.740;10.154;2023-07-28T11:30:23;22.10;69.10
74364;DHT22;62797;49.740;10.154;2023-07-28T11:32:53;22.30;61.40
74364;DHT22;62797;49.740;10.154;2023-07-28T11:35:22;22.50;66.00
74364;DHT22;62797;49.740;10.154;2023-07-28T11:37:49;22.60;56.40
74364;DHT22;62797;49.740;10.154;2023-07-28T11:40:20;22.70;57.20
74364;DHT22;62797;49.740;10.154;2023-07-28T11:42:54;22.80;50.60
74364;DHT22;62797;49.740;10.154;2023-07-28T11:45:22;22.70;55.80
74364;DHT22;62797;49.740;10.154;2023-07-28T11:47:59;22.60;56.80
74364;DHT22;62797;49.740;10.154;2023-07-28T11:50:26;22.80;52.30
74364;DHT22;62797;49.740;10.154;2023-07-28T11:52:51;22.80;58.40
74364;DHT22;62797;49.740;10.154;2023-07-28T11:55:18;22.80;54.70
74364;DHT22;62797;49.740;10.154;2023-07-28T11:57:43;22.90;57.90
74364;DHT22;62797;49.740;10.154;2023-07-28T12:00:10;23.00;54.20
74364;DHT22;62797;49.740;10.154;2023-07-28T12:02:38;22.90;54.10
74364;DHT22;62797;49.740;10.154;2023-07-28T12:05:12;22.90;48.90
74364;DHT22;62797;49.740;10.154;2023-07-28T12:07:38;23.00;47.70
74364;DHT22;62797;49.740;10.154;2023-07-28T12:10:04;23.20;48.80
74364;DHT22;62797;49.740;10.154;2023-07-28T12:12:43;23.40;48.60
74364;DHT22;62797;49.740;10.154;2023-07-28T12:15:28;23.50;48.90
74364;DHT22;62797;49.740;10.154;2023-07-28T12:18:08;23.50;45.50
74364;DHT22;62797;49.740;10.154;2023-07-28T12:20:43;23.30;44.60
74364;DHT22;62797;49.740;10.154;2023-07-28T12:23:20;23.20;54.30
74364;DHT22;62797;49.740;10.154;2023-07-28T12:25:45;23.20;52.30
74364;DHT22;62797;49.740;10.154;2023-07-28T12:28:12;23.40;55.90
74364;DHT22;62797;49.740;10.154;2023-07-28T12:30:38;23.30;52.30
74364;DHT22;62797;49.740;10.154;2023-07-28T12:33:05;23.20;48.90
74364;DHT22;62797;49.740;10.154;2023-07-28T12:35:33;23.20;51.90
74364;DHT22;62797;49.740;10.154;2023-07-28T12:38:06;23.00;49.40
74364;DHT22;62797;49.740;10.154;2023-07-28T12:40:34;22.90;50.00
74364;DHT22;62797;49.740;10.154;2023-07-28T12:43:02;22.80;53.50
74364;DHT22;62797;49.740;10.154;2023-07-28T12:45:32;23.00;54.80
74364;DHT22;62797;49.740;10.154;2023-07-28T12:47:58;23.30;47.70
74364;DHT22;62797;49.740;10.154;2023-07-28T12:50:28;23.60;47.50
74364;DHT22;62797;49.740;10.154;2023-07-28T12:52:53;23.90;42.70
74364;DHT22;62797;49.740;10.154;2023-07-28T12:55:19;23.90;45.30
74364;DHT22;62797;49.740;10.154;2023-07-28T12:57:46;24.10;43.50
74364;DHT22;62797;49.740;10.154;2023-07-28T13:00:14;24.10;43.90
74364;DHT22;62797;49.740;10.154;2023-07-28T13:02:42;24.10;39.90
74364;DHT22;62797;49.740;10.154;2023-07-28T13:05:14;24.10;43.70
74364;DHT22;62797;49.740;10.154;2023-07-28T13:07:41;24.10;39.30
74364;DHT22;62797;49.740;10.154;2023-07-28T13:10:08;24.10;38.90
74364;DHT22;62797;49.740;10.154;2023-07-28T13:12:38;24.10;41.50
74364;DHT22;62797;49.740;10.154;2023-07-28T13:15:04;24.10;38.00
74364;DHT22;62797;49.740;10.154;2023-07-28T13:17:30;24.00;38.10
74364;DHT22;62797;49.740;10.154;2023-07-28T13:19:55;23.90;42.80
74364;DHT22;62797;49.740;10.154;2023-07-28T13:22:24;23.90;43.30
74364;DHT22;62797;49.740;10.154;2023-07-28T13:24:52;23.90;41.70
74364;DHT22;62797;49.740;10.154;2023-07-28T13:27:17;23.90;43.60
74364;DHT22;62797;49.740;10.154;2023-07-28T13:29:43;23.90;43.10
74364;DHT22;62797;49.740;10.154;2023-07-28T13:32:18;23.90;41.50
74364;DHT22;62797;49.740;10.154;2023-07-28T13:34:45;23.90;41.40
74364;DHT22;62797;49.740;10.154;2023-07-28T13:37:10;24.00;45.20
74364;DHT22;62797;49.740;10.154;2023-07-28T13:39:36;24.30;41.40
74364;DHT22;62797;49.740;10.154;2023-07-28T13:42:01;24.30;39.00
74364;DHT22;62797;49.740;10.154;2023-07-28T13:44:27;24.30;39.30
74364;DHT22;62797;49.740;10.154;2023-07-28T13:46:53;24.30;38.30
74364;DHT22;62797;49.740;10.154;2023-07-28T13:49:19;24.10;38.30
74364;DHT22;62797;49.740;10.154;2023-07-28T13:51:45;23.90;41.30
74364;DHT22;62797;49.740;10.154;2023-07-28T13:54:10;23.80;42.20
74364;DHT22;62797;49.740;10.154;2023-07-28T13:56:37;23.70;41.00
74364;DHT22;62797;49.740;10.154;2023-07-28T13:59:02;23.60;42.90
74364;DHT22;62797;49.740;10.154;2023-07-28T14:01:28;23.60;42.70
74364;DHT22;62797;49.740;10.154;2023-07-28T14:03:56;23.50;43.20
74364;DHT22;62797;49.740;10.154;2023-07-28T14:06:21;23.40;45.90
74364;DHT22;62797;49.740;10.154;2023-07-28T14:08:47;23.40;45.60
74364;DHT22;62797;49.740;10.154;2023-07-28T14:11:13;23.30;44.30
74364;DHT22;62797;49.740;10.154;2023-07-28T14:13:44;23.30;44.40
74364;DHT22;62797;49.740;10.154;2023-07-28T14:16:10;23.20;45.90
74364;DHT22;62797;49.740;10.154;2023-07-28T14:18:36;22.70;50.10
74364;DHT22;62797;49.740;10.154;2023-07-28T14:21:02;22.30;55.00
74364;DHT22;62797;49.740;10.154;2023-07-28T14:23:28;22.00;56.40
74364;DHT22;62797;49.740;10.154;2023-07-28T14:25:56;22.00;60.60
74364;DHT22;62797;49.740;10.154;2023-07-28T14:28:23;22.10;60.10
74364;DHT22;62797;49.740;10.154;2023-07-28T14:30:50;22.20;60.80
74364;DHT22;62797;49.740;10.154;2023-07-28T14:33:17;22.40;58.50
74364;DHT22;62797;49.740;10.154;2023-07-28T14:35:44;22.50;58.10
74364;DHT22;62797;49.740;10.154;2023-07-28T14:38:13;22.60;55.60
74364;DHT22;62797;49.740;10.154;2023-07-28T14:40:39;22.60;56.60
74364;DHT22;62797;49.740;10.154;2023-07-28T14:43:06;22.70;56.90
74364;DHT22;62797;49.740;10.154;2023-07-28T14:45:31;22.80;54.50
74364;DHT22;62797;49.740;10.154;2023-07-28T14:47:57;22.60;57.50
74364;DHT22;62797;49.740;10.154;2023-07-28T14:50:23;22.70;56.90
74364;DHT22;62797;49.740;10.154;2023-07-28T14:52:49;22.70;56.80
74364;DHT22;62797;49.740;10.154;2023-07-28T14:55:14;22.70;55.00
74364;DHT22;62797;49.740;10.154;2023-07-28T14:57:40;22.80;53.10
74364;DHT22;62797;49.740;10.154;2023-07-28T15:00:06;22.60;51.70
74364;DHT22;62797;49.740;10.154;2023-07-28T15:02:35;22.70;51.90
74364;DHT22;62797;49.740;10.154;2023-07-28T15:05:06;22.70;52.30
74364;DHT22;62797;49.740;10.154;2023-07-28T15:07:33;22.50;51.40
74364;DHT22;62797;49.740;10.154;2023-07-28T15:10:01;22.50;55.00
74364;DHT22;62797;49.740;10.154;2023-07-28T15:12:26;22.40;54.30
74364;DHT22;62797;49.740;10.154;2023-07-28T15:14:52;22.30;56.50
74364;DHT22;62797;49.740;10.154;2023-07-28T15:17:17;22.30;53.50
74364;DHT22;62797;49.740;10.154;2023-07-28T15:19:43;22.30;51.90
74364;DHT22;62797;49.740;10.154;2023-07-28T15:22:09;22.20;51.80
74364;DHT22;62797;49.740;10.154;2023-07-28T15:24:35;22.20;51.90
74364;DHT22;62797;49.740;10.154;2023-07-28T15:27:01;22.10;52.50